A- A+ FrançaisEnglishEspañol中国

Services sur Internet Soldes sur Internet Des idées de cadeaux Météo Météo aéro

La météo à : Autours de vous Orange-CaritatBordeaux-MerignacBiscarrosse-Parentis Tarbes-Lourdes-Pyrénées

La météo aéronautique pour les pilotes, la préparation du vol avec les METAR (METeorological Aerodrome Report, message d'observation des conditions météorologiques pour l'aviation) et Les TAF (Terminal Aerodrome Forecast : message de prévision à court terme des conditions météorologiques pour l'aviation). Et les autres ressources comme les VAC (Visual Approch Chart) et les NOTAM (Notice To Airman) pour préprer les vols.

Aéroport Orange-Caritat (France) / OACI LFMO / IATA XOG

L'altitude de l'aéroport Orange-Caritat est de 60 mètres. Il est situé à proximité de Orange (France). La météo générale à 5 jours est disponible pour Lagarde-Paréol situé à 9.8 km.

METAR de l'aéroport Orange-Caritat - LFMO

LFMO 211200Z AUTO 13014KT 9999 FEW040 BKN064 BKN074 14/07 Q1008 TEMPO 13020G30KT 4000 SHRA SCT025CB BKN030

Décodage du METAR de l'aéroport Orange-Caritat (France)

METAR émis par LFMO le jeudi 21 novembre 2019 à 12:00 heure TU. C'est un METAR généré automatiquement, il y a 9 minutes.

La visibilité est de supérieure à 10 km = supérieure à 6.2 sm.

La température est de 14°C et le point rosée est de 7°C. Ce qui correspond à 63% d'humidité relative.

Le QNH est de 1008 hPa = 29.77 inHg

Vent de 14 kt = 26 km/h, orienté à 130°.

Nuages : Quelques nuages à 4000 ft = 1220 mètres. Couverture nuageuse fragmentée à 6400 ft = 1950 mètres. Couverture nuageuse fragmentée à 7400 ft = 2260 mètres.

Temporairement 13020G30KT 4000 SHRA nuages épars à 025CB couverture nuageuse fragmentée à 030

TAF de l'aéroport Orange-Caritat - LFMO

LFMO 210800Z 2109/2209 14008KT 9999 SCT040 BKN050 TEMPO 2109/2112 13010G20KT 5000 SHRA SCT035TCU BECMG 2112/2113 8000 RA SCT030TCU BKN040 TEMPO 2113/2118 13020G30KT 4000 SHRA SCT025CB BKN030 BECMG 2123/2201 NSW

LFMO 210800Z 2109/2209 14008KT 9999 nuages épars à 040 couverture nuageuse fragmentée à 050 temporairement 2109/2112 13010G20KT 5000 SHRA nuages épars à 035TCU devenant 2112/2113 8000 pluie nuages épars à 030TCU couverture nuageuse fragmentée à 040 temporairement 2113/2118 13020G30KT 4000 SHRA nuages épars à 025CB couverture nuageuse fragmentée à 030 devenant 2123/2201 NSW

Aéroport à proximité de Orange-Caritat

Météo générale à 5 jours à Lagarde-Paréol (9.8 km)Aéroport Avignon Pujaut (18 km)Aéroport Carpentras (21 km)Aéroport Valreas-Visan (22 km)Aéroport Avignon-Caumont (26 km)Aéroport Pierrelatte (31 km)Aéroport Uzes (38 km)

Vue aérienne de l'aéroport Orange-Caritat

NOTAM de l'aéroport Orange-Caritat

Les NOTAM sont fournis sans aucune garantie de leur actualité. Le pilote est le seul responsable de la vérification de sa validité avant de l'utiliser opérationnellement pour préparer un vol ou l'utiliser lors de sa navigation.

Pas de NOTAM

Sources des données